Time,TemperatureF,DewpointF,PressureIn,WindDirection,WindDirectionDegrees,WindSpeedMPH,WindSpeedGustMPH,Humidity,HourlyPrecipIn,Conditions,Clouds,dailyrainin,SoftwareType,DateUTC
2013-07-24 00:00:00,67.3,42.1,29.75,ESE,120,0.0,4.0,40,0.00,CLR,CLR,0.00,WeatherDisplay:10.37,2013-07-24 06:00:00,
2013-07-24 00:05:00,66.6,42.1,29.75,ESE,116,2.0,4.0,41,0.00,CLR,CLR,0.00,WeatherDisplay:10.37,2013-07-24 06:05:00,
2013-07-24 00:10:00,65.8,42.1,29.76,ESE,114,0.0,4.0,42,0.00,CLR,CLR,0.00,WeatherDisplay:10.37,2013-07-24 06:10:00,
2013-07-24 00:15:00,65.4,41.0,29.76,ESE,114,2.0,4.0,41,0.00,CLR,CLR,0.00,WeatherDisplay:10.37,2013-07-24 06:15:00,
2013-07-24 00:20:00,65.4,40.4,29.76,ESE,118,3.0,5.0,40,0.00,CLR,CLR,0.00,WeatherDisplay:10.37,2013-07-24 06:20:00,
2013-07-24 00:30:00,66.4,41.3,29.76,SE,137,2.0,6.0,40,0.00,CLR,CLR,0.00,WeatherDisplay:10.37,2013-07-24 06:30:00,
2013-07-24 00:40:00,65.7,40.7,29.76,SE,131,2.0,4.0,40,0.00,CLR,CLR,0.00,WeatherDisplay:10.37,2013-07-24 06:40:00,
2013-07-24 00:45:00,65.5,40.5,29.75,SE,125,3.0,5.0,40,0.00,CLR,CLR,0.00,WeatherDisplay:10.37,2013-07-24 06:45:00,
2013-07-24 00:50:00,65.2,39.6,29.75,SE,125,3.0,5.0,39,0.00,CLR,CLR,0.00,WeatherDisplay:10.37,2013-07-24 06:50:00,
2013-07-24 00:55:00,65.2,39.6,29.76,SE,136,5.0,6.0,39,0.00,CLR,CLR,0.00,WeatherDisplay:10.37,2013-07-24 06:55:00,
2013-07-24 01:00:00,65.8,39.5,29.76,SE,136,5.0,7.0,38,0.00,CLR,CLR,0.00,WeatherDisplay:10.37,2013-07-24 07:00:00,
2013-07-24 01:10:00,66.4,39.3,29.76,SE,130,5.0,8.0,37,0.00,CLR,CLR,0.00,WeatherDisplay:10.37,2013-07-24 07:10:00,
2013-07-24 01:15:00,66.7,39.6,29.76,SE,128,2.0,6.0,37,0.00,CLR,CLR,0.00,WeatherDisplay:10.37,2013-07-24 07:15:00,
2013-07-24 01:25:00,67.2,39.3,29.76,ESE,120,0.0,2.0,36,0.00,CLR,CLR,0.00,WeatherDisplay:10.37,2013-07-24 07:25:00,
2013-07-24 01:30:00,66.7,40.9,29.75,ESE,119,0.0,0.0,39,0.00,CLR,CLR,0.00,WeatherDisplay:10.37,2013-07-24 07:30:00,
2013-07-24 01:40:00,65.9,39.6,29.75,ESE,114,3.0,5.0,38,0.00,CLR,CLR,0.00,WeatherDisplay:10.37,2013-07-24 07:40:00,
2013-07-24 01:45:00,65.9,40.2,29.75,SE,126,2.0,6.0,39,0.00,CLR,CLR,0.00,WeatherDisplay:10.37,2013-07-24 07:45:00,
2013-07-24 02:00:00,65.9,39.6,29.75,ESE,120,3.0,6.0,38,0.00,CLR,CLR,0.00,WeatherDisplay:10.37,2013-07-24 08:00:00,
2013-07-24 02:05:00,66.1,40.4,29.75,SE,127,5.0,7.0,39,0.00,CLR,CLR,0.00,WeatherDisplay:10.37,2013-07-24 08:05:00,
2013-07-24 02:15:00,66.6,40.2,29.74,SE,125,1.0,4.0,38,0.00,CLR,CLR,0.00,WeatherDisplay:10.37,2013-07-24 08:15:00,
2013-07-24 02:25:00,66.9,40.4,29.74,SE,128,5.0,7.0,38,0.00,CLR,CLR,0.00,WeatherDisplay:10.37,2013-07-24 08:25:00,
2013-07-24 02:35:00,67.4,40.9,29.74,SE,124,5.0,9.0,38,0.00,CLR,CLR,0.00,WeatherDisplay:10.37,2013-07-24 08:35:00,
2013-07-24 02:45:00,66.8,41.0,29.73,ESE,122,5.0,9.0,39,0.00,CLR,CLR,0.00,WeatherDisplay:10.37,2013-07-24 08:45:00,
2013-07-24 02:50:00,66.8,41.0,29.73,ESE,118,3.0,9.0,39,0.00,CLR,CLR,0.00,WeatherDisplay:10.37,2013-07-24 08:50:00,
2013-07-24 02:55:00,66.5,41.4,29.73,ESE,116,2.0,5.0,40,0.00,CLR,CLR,0.00,WeatherDisplay:10.37,2013-07-24 08:55:00,
2013-07-24 03:00:00,66.1,41.7,29.73,SE,124,5.0,7.0,41,0.00,CLR,CLR,0.00,WeatherDisplay:10.37,2013-07-24 09:00:00,
2013-07-24 03:05:00,66.4,41.3,29.73,SE,128,3.0,7.0,40,0.00,CLR,CLR,0.00,WeatherDisplay:10.37,2013-07-24 09:05:00,
2013-07-24 03:15:00,66.7,42.3,29.73,ESE,122,0.0,1.0,41,0.00,CLR,CLR,0.00,WeatherDisplay:10.37,2013-07-24 09:15:00,
2013-07-24 03:20:00,66.5,42.7,29.72,ESE,122,1.0,4.0,42,0.00,CLR,CLR,0.00,WeatherDisplay:10.37,2013-07-24 09:20:00,
2013-07-24 03:25:00,65.8,43.3,29.73,SE,129,0.0,6.0,44,0.00,CLR,CLR,0.00,WeatherDisplay:10.37,2013-07-24 09:25:00,
2013-07-24 03:30:00,65.2,42.7,29.72,SE,126,5.0,7.0,44,0.00,CLR,CLR,0.00,WeatherDisplay:10.37,2013-07-24 09:30:00,
2013-07-24 03:35:00,65.3,42.8,29.73,SE,126,3.0,6.0,44,0.00,CLR,CLR,0.00,WeatherDisplay:10.37,2013-07-24 09:35:00,
2013-07-24 03:40:00,65.5,43.0,29.72,SE,137,3.0,4.0,44,0.00,CLR,CLR,0.00,WeatherDisplay:10.37,2013-07-24 09:40:00,
2013-07-24 03:45:00,65.4,42.3,29.72,SE,132,5.0,7.0,43,0.00,CLR,CLR,0.00,WeatherDisplay:10.37,2013-07-24 09:45:00,
2013-07-24 03:55:00,65.5,44.2,29.72,SE,133,5.0,6.0,46,0.00,CLR,CLR,0.00,WeatherDisplay:10.37,2013-07-24 09:55:00,
2013-07-24 04:00:00,64.3,45.2,29.72,SE,144,6.0,7.0,50,0.00,CLR,CLR,0.00,WeatherDisplay:10.37,2013-07-24 10:00:00,
2013-07-24 04:05:00,63.9,44.4,29.72,SSE,148,5.0,7.0,49,0.00,CLR,CLR,0.00,WeatherDisplay:10.37,2013-07-24 10:05:00,
2013-07-24 04:15:00,63.7,45.2,29.72,SE,130,1.0,4.0,51,0.00,CLR,CLR,0.00,WeatherDisplay:10.37,2013-07-24 10:15:00,
2013-07-24 04:25:00,63.5,44.5,29.73,SE,128,1.0,4.0,50,0.00,CLR,CLR,0.00,WeatherDisplay:10.37,2013-07-24 10:25:00,
2013-07-24 04:30:00,63.5,45.0,29.72,ESE,117,3.0,5.0,51,0.00,CLR,CLR,0.00,WeatherDisplay:10.37,2013-07-24 10:30:00,
2013-07-24 04:35:00,63.3,44.4,29.72,SE,124,3.0,6.0,50,0.00,CLR,CLR,0.00,WeatherDisplay:10.37,2013-07-24 10:35:00,
2013-07-24 04:40:00,63.4,43.9,29.73,SE,135,5.0,7.0,49,0.00,CLR,CLR,0.00,WeatherDisplay:10.37,2013-07-24 10:40:00,
2013-07-24 04:50:00,63.7,43.6,29.73,SE,140,7.0,12.0,48,0.00,CLR,CLR,0.00,WeatherDisplay:10.37,2013-07-24 10:50:00,
2013-07-24 04:55:00,63.9,44.3,29.73,SE,145,6.0,7.0,49,0.00,CLR,CLR,0.00,WeatherDisplay:10.37,2013-07-24 10:55:00,
2013-07-24 05:05:00,63.8,43.1,29.73,SE,140,5.0,6.0,47,0.00,CLR,CLR,0.00,WeatherDisplay:10.37,2013-07-24 11:05:00,
2013-07-24 05:10:00,64.5,43.2,29.74,SE,142,3.0,7.0,46,0.00,CLR,CLR,0.00,WeatherDisplay:10.37,2013-07-24 11:10:00,
2013-07-24 05:15:00,64.7,42.9,29.73,SE,143,0.0,4.0,45,0.00,CLR,CLR,0.00,WeatherDisplay:10.37,2013-07-24 11:15:00,
2013-07-24 05:20:00,64.7,43.4,29.73,SE,135,0.0,1.0,46,0.00,CLR,CLR,0.00,WeatherDisplay:10.37,2013-07-24 11:20:00,
2013-07-24 05:25:00,64.4,44.8,29.74,SE,137,1.0,5.0,49,0.00,CLR,CLR,0.00,WeatherDisplay:10.37,2013-07-24 11:25:00,
2013-07-24 05:35:00,63.3,44.9,29.74,SE,138,0.0,0.0,51,0.00,CLR,CLR,0.00,WeatherDisplay:10.37,2013-07-24 11:35:00,
2013-07-24 05:45:00,61.6,46.2,29.75,SE,138,2.0,4.0,57,0.00,CLR,CLR,0.00,WeatherDisplay:10.37,2013-07-24 11:45:00,
2013-07-24 05:50:00,60.9,46.0,29.75,SE,138,0.0,2.0,58,0.00,CLR,CLR,0.00,WeatherDisplay:10.37,2013-07-24 11:50:00,
2013-07-24 05:55:00,60.4,46.0,29.75,SE,137,0.0,1.0,59,0.00,CLR,CLR,0.00,WeatherDisplay:10.37,2013-07-24 11:55:00,
2013-07-24 06:05:00,60.1,46.2,29.75,SE,138,0.0,1.0,60,0.00,CLR,CLR,0.00,WeatherDisplay:10.37,2013-07-24 12:05:00,
2013-07-24 06:10:00,60.0,44.7,29.75,SE,138,0.0,1.0,57,0.00,CLR,CLR,0.00,WeatherDisplay:10.37,2013-07-24 12:10:00,
2013-07-24 06:15:00,60.9,45.1,29.75,SSE,149,3.0,5.0,56,0.00,CLR,CLR,0.00,WeatherDisplay:10.37,2013-07-24 12:15:00,
2013-07-24 06:20:00,61.2,44.4,29.75,SE,146,2.0,5.0,54,0.00,CLR,CLR,0.00,WeatherDisplay:10.37,2013-07-24 12:20:00,
2013-07-24 06:25:00,61.4,44.6,29.75,SE,138,3.0,5.0,54,0.00,CLR,CLR,0.00,WeatherDisplay:10.37,2013-07-24 12:25:00,
2013-07-24 06:30:00,61.4,44.6,29.75,SSE,153,2.0,4.0,54,0.00,CLR,CLR,0.00,WeatherDisplay:10.37,2013-07-24 12:30:00,
2013-07-24 06:35:00,61.5,45.2,29.75,SSE,157,3.0,5.0,55,0.00,CLR,CLR,0.00,WeatherDisplay:10.37,2013-07-24 12:35:00,
2013-07-24 06:40:00,61.6,44.8,29.75,SSE,154,0.0,5.0,54,0.00,CLR,CLR,0.00,WeatherDisplay:10.37,2013-07-24 12:40:00,
2013-07-24 06:45:00,61.6,44.8,29.76,South,181,0.0,4.0,54,0.00,CLR,CLR,0.00,WeatherDisplay:10.37,2013-07-24 12:45:00,
2013-07-24 06:50:00,61.7,44.9,29.75,SSE,160,3.0,6.0,54,0.00,CLR,CLR,0.00,WeatherDisplay:10.37,2013-07-24 12:50:00,
2013-07-24 06:55:00,61.9,45.1,29.75,SE,138,3.0,5.0,54,0.00,CLR,CLR,0.00,WeatherDisplay:10.37,2013-07-24 12:55:00,
2013-07-24 07:00:00,62.1,44.8,29.75,SE,130,2.0,5.0,53,0.00,CLR,CLR,0.00,WeatherDisplay:10.37,2013-07-24 13:00:00,
2013-07-24 07:05:00,62.3,45.4,29.75,SE,127,0.0,4.0,54,0.00,CLR,CLR,0.00,WeatherDisplay:10.37,2013-07-24 13:05:00,
2013-07-24 07:10:00,62.3,45.4,29.75,SE,138,1.0,4.0,54,0.00,CLR,CLR,0.00,WeatherDisplay:10.37,2013-07-24 13:10:00,
2013-07-24 07:15:00,62.6,45.7,29.75,ESE,119,2.0,4.0,54,0.00,CLR,CLR,0.00,WeatherDisplay:10.37,2013-07-24 13:15:00,
2013-07-24 07:20:00,62.7,46.3,29.75,ESE,118,3.0,4.0,55,0.00,CLR,CLR,0.00,WeatherDisplay:10.37,2013-07-24 13:20:00,
2013-07-24 07:25:00,62.7,45.8,29.75,ESE,117,1.0,4.0,54,0.00,CLR,CLR,0.00,WeatherDisplay:10.37,2013-07-24 13:25:00,
2013-07-24 07:30:00,63.0,46.1,29.75,SE,127,3.0,5.0,54,0.00,CLR,CLR,0.00,WeatherDisplay:10.37,2013-07-24 13:30:00,
2013-07-24 07:35:00,63.3,46.9,29.76,SE,137,3.0,5.0,55,0.00,CLR,CLR,0.00,WeatherDisplay:10.37,2013-07-24 13:35:00,
2013-07-24 07:40:00,63.7,47.2,29.76,SE,133,1.0,6.0,55,0.00,CLR,CLR,0.00,WeatherDisplay:10.37,2013-07-24 13:40:00,
2013-07-24 07:50:00,64.7,47.1,29.76,SSE,163,0.0,2.0,53,0.00,CLR,CLR,0.00,WeatherDisplay:10.37,2013-07-24 13:50:00,
2013-07-24 07:55:00,65.1,49.5,29.76,SSE,163,0.0,2.0,57,0.00,CLR,CLR,0.00,WeatherDisplay:10.37,2013-07-24 13:55:00,
2013-07-24 08:00:00,65.4,49.8,29.76,SSE,163,0.0,1.0,57,0.00,CLR,CLR,0.00,WeatherDisplay:10.37,2013-07-24 14:00:00,
2013-07-24 08:05:00,65.8,50.1,29.76,SSE,151,0.0,2.0,57,0.00,CLR,CLR,0.00,WeatherDisplay:10.37,2013-07-24 14:05:00,
2013-07-24 08:10:00,66.2,50.5,29.76,SE,136,0.0,1.0,57,0.00,CLR,CLR,0.00,WeatherDisplay:10.37,2013-07-24 14:10:00,
2013-07-24 08:20:00,66.6,50.4,29.77,ESE,120,0.0,2.0,56,0.00,CLR,CLR,0.00,WeatherDisplay:10.37,2013-07-24 14:20:00,
2013-07-24 08:25:00,66.8,49.6,29.77,ESE,114,0.0,4.0,54,0.00,CLR,CLR,0.00,WeatherDisplay:10.37,2013-07-24 14:25:00,
2013-07-24 08:30:00,67.2,51.0,29.77,ESE,115,0.0,1.0,56,0.00,CLR,CLR,0.00,WeatherDisplay:10.37,2013-07-24 14:30:00,
2013-07-24 08:40:00,68.0,50.7,29.77,SSE,152,0.0,3.0,54,0.00,CLR,CLR,0.00,WeatherDisplay:10.37,2013-07-24 14:40:00,
2013-07-24 08:45:00,68.4,52.1,29.77,SSE,159,0.0,0.0,56,0.00,CLR,CLR,0.00,WeatherDisplay:10.37,2013-07-24 14:45:00,
2013-07-24 08:50:00,68.6,52.3,29.77,SSE,159,0.0,0.0,56,0.00,CLR,CLR,0.00,WeatherDisplay:10.37,2013-07-24 14:50:00,
2013-07-24 08:55:00,68.8,51.9,29.77,SSE,159,0.0,1.0,55,0.00,CLR,CLR,0.00,WeatherDisplay:10.37,2013-07-24 14:55:00,
2013-07-24 09:00:00,69.0,54.5,29.77,SSE,159,0.0,0.0,60,0.00,CLR,CLR,0.00,WeatherDisplay:10.37,2013-07-24 15:00:00,
2013-07-24 09:05:00,69.1,55.1,29.77,SSE,159,0.0,0.0,61,0.00,CLR,CLR,0.00,WeatherDisplay:10.37,2013-07-24 15:05:00,
2013-07-24 09:15:00,69.4,54.0,29.77,SSE,150,0.0,1.0,58,0.00,CLR,CLR,0.00,WeatherDisplay:10.37,2013-07-24 15:15:00,
2013-07-24 09:20:00,69.2,53.8,29.77,SE,146,0.0,0.0,58,0.00,CLR,CLR,0.00,WeatherDisplay:10.37,2013-07-24 15:20:00,
2013-07-24 09:25:00,69.2,54.7,29.77,SE,142,0.0,0.0,60,0.00,CLR,CLR,0.00,WeatherDisplay:10.37,2013-07-24 15:25:00,
2013-07-24 09:30:00,69.4,54.9,29.77,SE,137,0.0,0.0,60,0.00,CLR,CLR,0.00,WeatherDisplay:10.37,2013-07-24 15:30:00,
2013-07-24 09:35:00,69.6,55.5,29.77,SE,136,0.0,0.0,61,0.00,CLR,CLR,0.00,WeatherDisplay:10.37,2013-07-24 15:35:00,
2013-07-24 09:40:00,69.8,56.6,29.77,SE,136,0.0,0.0,63,0.00,CLR,CLR,0.00,WeatherDisplay:10.37,2013-07-24 15:40:00,
2013-07-24 09:45:00,70.2,55.2,29.77,SE,136,0.0,1.0,59,0.00,CLR,CLR,0.00,WeatherDisplay:10.37,2013-07-24 15:45:00,
2013-07-24 09:50:00,71.0,55.0,29.77,SE,137,1.0,3.0,57,0.00,CLR,CLR,0.00,WeatherDisplay:10.37,2013-07-24 15:50:00,
2013-07-24 09:55:00,71.7,55.7,29.77,SE,142,0.0,1.0,57,0.00,CLR,CLR,0.00,WeatherDisplay:10.37,2013-07-24 15:55:00,
2013-07-24 10:00:00,72.7,53.5,29.77,SE,142,0.0,0.0,51,0.00,CLR,CLR,0.00,WeatherDisplay:10.37,2013-07-24 16:00:00,
2013-07-24 10:05:00,73.4,54.2,29.78,SSE,163,1.0,3.0,51,0.00,CLR,CLR,0.00,WeatherDisplay:10.37,2013-07-24 16:05:00,
2013-07-24 10:15:00,74.8,51.4,29.78,SW,234,0.0,0.0,44,0.00,CLR,CLR,0.00,WeatherDisplay:10.37,2013-07-24 16:15:00,
2013-07-24 10:20:00,75.4,53.8,29.78,SW,234,0.0,1.0,47,0.00,CLR,CLR,0.00,WeatherDisplay:10.37,2013-07-24 16:20:00,
2013-07-24 10:25:00,76.4,54.1,29.78,SW,234,0.0,1.0,46,0.00,CLR,CLR,0.00,WeatherDisplay:10.37,2013-07-24 16:25:00,
2013-07-24 10:30:00,77.3,56.1,29.78,SW,234,0.0,2.0,48,0.00,CLR,CLR,0.00,WeatherDisplay:10.37,2013-07-24 16:30:00,
2013-07-24 10:35:00,78.2,55.7,29.78,WSW,258,1.0,4.0,46,0.00,CLR,CLR,0.00,WeatherDisplay:10.37,2013-07-24 16:35:00,
2013-07-24 10:40:00,79.3,51.5,29.78,NW,317,2.0,5.0,38,0.00,CLR,CLR,0.00,WeatherDisplay:10.37,2013-07-24 16:40:00,
2013-07-24 10:45:00,79.8,54.7,29.78,NNW,329,0.0,1.0,42,0.00,CLR,CLR,0.00,WeatherDisplay:10.37,2013-07-24 16:45:00,
2013-07-24 10:50:00,79.8,48.9,29.78,NNW,327,0.0,3.0,34,0.00,CLR,CLR,0.00,WeatherDisplay:10.37,2013-07-24 16:50:00,
2013-07-24 10:55:00,80.0,50.7,29.78,NW,323,0.0,1.0,36,0.00,CLR,CLR,0.00,WeatherDisplay:10.37,2013-07-24 16:55:00,
2013-07-24 11:00:00,80.1,48.4,29.78,West,269,2.0,15.0,33,0.00,CLR,CLR,0.00,WeatherDisplay:10.37,2013-07-24 17:00:00,
2013-07-24 11:10:00,78.4,46.1,29.78,SSE,154,7.0,16.0,32,0.00,CLR,CLR,0.00,WeatherDisplay:10.37,2013-07-24 17:10:00,
2013-07-24 11:15:00,78.2,45.9,29.78,SSE,159,13.0,22.0,32,0.00,CLR,CLR,0.00,WeatherDisplay:10.37,2013-07-24 17:15:00,
2013-07-24 11:20:00,78.6,46.3,29.78,SSE,165,15.0,23.0,32,0.00,CLR,CLR,0.00,WeatherDisplay:10.37,2013-07-24 17:20:00,
2013-07-24 11:25:00,78.5,45.3,29.79,SSE,163,8.0,24.0,31,0.00,CLR,CLR,0.00,WeatherDisplay:10.37,2013-07-24 17:25:00,
2013-07-24 11:30:00,78.6,46.3,29.79,SSE,167,13.0,26.0,32,0.00,CLR,CLR,0.00,WeatherDisplay:10.37,2013-07-24 17:30:00,
2013-07-24 11:35:00,78.0,44.9,29.79,SSE,158,17.0,25.0,31,0.00,CLR,CLR,0.00,WeatherDisplay:10.37,2013-07-24 17:35:00,
2013-07-24 11:40:00,77.6,45.4,29.79,SSE,158,13.0,26.0,32,0.00,CLR,CLR,0.00,WeatherDisplay:10.37,2013-07-24 17:40:00,
2013-07-24 11:45:00,79.1,48.3,29.79,SSE,165,9.0,20.0,34,0.00,CLR,CLR,0.00,WeatherDisplay:10.37,2013-07-24 17:45:00,
2013-07-24 11:50:00,80.4,48.6,29.79,SSE,157,10.0,26.0,33,0.00,CLR,CLR,0.00,WeatherDisplay:10.37,2013-07-24 17:50:00,
2013-07-24 11:55:00,80.8,48.2,29.79,SSE,161,13.0,28.0,32,0.00,CLR,CLR,0.00,WeatherDisplay:10.37,2013-07-24 17:55:00,
2013-07-24 12:05:00,80.2,48.5,29.79,SSE,167,14.0,25.0,33,0.00,CLR,CLR,0.00,WeatherDisplay:10.37,2013-07-24 18:05:00,
2013-07-24 12:10:00,79.6,48.0,29.78,SSE,164,18.0,25.0,33,0.00,CLR,CLR,0.00,WeatherDisplay:10.37,2013-07-24 18:10:00,
2013-07-24 12:15:00,78.7,46.4,29.78,SSE,158,18.0,31.0,32,0.00,CLR,CLR,0.00,WeatherDisplay:10.37,2013-07-24 18:15:00,
2013-07-24 12:20:00,78.9,48.1,29.78,SSE,158,20.0,30.0,34,0.00,CLR,CLR,0.00,WeatherDisplay:10.37,2013-07-24 18:20:00,
2013-07-24 12:25:00,78.5,47.8,29.79,SSE,151,17.0,33.0,34,0.00,CLR,CLR,0.00,WeatherDisplay:10.37,2013-07-24 18:25:00,
2013-07-24 12:35:00,78.8,48.8,29.79,SSE,153,14.0,24.0,35,0.00,CLR,CLR,0.00,WeatherDisplay:10.37,2013-07-24 18:35:00,
2013-07-24 12:40:00,78.9,48.1,29.79,SSE,163,14.0,29.0,34,0.00,CLR,CLR,0.00,WeatherDisplay:10.37,2013-07-24 18:40:00,
2013-07-24 12:45:00,78.4,46.9,29.79,South,170,15.0,31.0,33,0.00,CLR,CLR,0.00,WeatherDisplay:10.37,2013-07-24 18:45:00,
2013-07-24 12:50:00,78.8,48.8,29.79,SSE,156,13.0,21.0,35,0.00,CLR,CLR,0.00,WeatherDisplay:10.37,2013-07-24 18:50:00,
2013-07-24 12:55:00,78.7,49.5,29.79,SE,141,13.0,22.0,36,0.00,CLR,CLR,0.00,WeatherDisplay:10.37,2013-07-24 18:55:00,
2013-07-24 13:00:00,78.7,49.5,29.80,SE,128,8.0,21.0,36,0.00,CLR,CLR,0.00,WeatherDisplay:10.37,2013-07-24 19:00:00,
2013-07-24 13:05:00,79.2,50.7,29.80,ESE,122,10.0,20.0,37,0.00,CLR,CLR,0.00,WeatherDisplay:10.37,2013-07-24 19:05:00,
2013-07-24 13:10:00,79.6,48.8,29.79,SE,124,8.0,20.0,34,0.00,CLR,CLR,0.00,WeatherDisplay:10.37,2013-07-24 19:10:00,
2013-07-24 13:20:00,79.3,52.9,29.79,East,99,5.0,15.0,40,0.00,CLR,CLR,0.00,WeatherDisplay:10.37,2013-07-24 19:20:00,
2013-07-24 13:25:00,80.0,51.4,29.78,ESE,107,7.0,13.0,37,0.00,CLR,CLR,0.00,WeatherDisplay:10.37,2013-07-24 19:25:00,
2013-07-24 13:30:00,81.2,52.4,29.78,ESE,122,12.0,22.0,37,0.00,CLR,CLR,0.00,WeatherDisplay:10.37,2013-07-24 19:30:00,
2013-07-24 13:40:00,81.8,49.1,29.78,SSE,160,13.0,21.0,32,0.00,CLR,CLR,0.00,WeatherDisplay:10.37,2013-07-24 19:40:00,
2013-07-24 13:45:00,80.6,51.2,29.78,SSE,156,10.0,16.0,36,0.00,CLR,CLR,0.00,WeatherDisplay:10.37,2013-07-24 19:45:00,
2013-07-24 13:50:00,80.9,49.9,29.77,SSE,150,15.0,23.0,34,0.00,CLR,CLR,0.00,WeatherDisplay:10.37,2013-07-24 19:50:00,
2013-07-24 13:55:00,81.6,49.7,29.77,SSE,167,9.0,24.0,33,0.00,CLR,CLR,0.00,WeatherDisplay:10.37,2013-07-24 19:55:00,
2013-07-24 14:05:00,83.8,49.0,29.76,South,188,7.0,15.0,30,0.00,CLR,CLR,0.00,WeatherDisplay:10.37,2013-07-24 20:05:00,
2013-07-24 14:10:00,83.6,51.5,29.76,South,177,12.0,20.0,33,0.00,CLR,CLR,0.00,WeatherDisplay:10.37,2013-07-24 20:10:00,
2013-07-24 14:20:00,82.2,50.2,29.75,South,175,9.0,17.0,33,0.00,CLR,CLR,0.00,WeatherDisplay:10.37,2013-07-24 20:20:00,
2013-07-24 14:25:00,82.5,51.3,29.75,South,183,6.0,14.0,34,0.00,CLR,CLR,0.00,WeatherDisplay:10.37,2013-07-24 20:25:00,
2013-07-24 14:35:00,83.7,49.8,29.75,SSW,209,5.0,10.0,31,0.00,CLR,CLR,0.00,WeatherDisplay:10.37,2013-07-24 20:35:00,
2013-07-24 14:40:00,84.3,48.6,29.74,SW,219,5.0,12.0,29,0.00,CLR,CLR,0.00,WeatherDisplay:10.37,2013-07-24 20:40:00,
2013-07-24 14:45:00,83.0,49.2,29.75,South,180,8.0,15.0,31,0.00,CLR,CLR,0.00,WeatherDisplay:10.37,2013-07-24 20:45:00,
2013-07-24 14:50:00,82.6,50.6,29.74,South,183,5.0,9.0,33,0.00,CLR,CLR,0.00,WeatherDisplay:10.37,2013-07-24 20:50:00,
2013-07-24 14:55:00,83.3,51.2,29.74,South,185,9.0,17.0,33,0.00,CLR,CLR,0.00,WeatherDisplay:10.37,2013-07-24 20:55:00,
2013-07-24 15:00:00,83.8,49.9,29.74,South,188,7.0,17.0,31,0.00,CLR,CLR,0.00,WeatherDisplay:10.37,2013-07-24 21:00:00,
2013-07-24 15:05:00,83.0,49.3,29.74,South,180,7.0,14.0,31,0.00,CLR,CLR,0.00,WeatherDisplay:10.37,2013-07-24 21:05:00,
2013-07-24 15:15:00,81.9,49.1,29.74,South,184,6.0,17.0,32,0.00,CLR,CLR,0.00,WeatherDisplay:10.37,2013-07-24 21:15:00,
2013-07-24 15:20:00,82.3,49.5,29.74,SSW,198,9.0,14.0,32,0.00,CLR,CLR,0.00,WeatherDisplay:10.37,2013-07-24 21:20:00,
2013-07-24 15:30:00,82.1,50.1,29.75,SSW,193,8.0,17.0,33,0.00,CLR,CLR,0.00,WeatherDisplay:10.37,2013-07-24 21:30:00,
2013-07-24 15:35:00,82.2,48.6,29.75,SSW,192,12.0,20.0,31,0.00,CLR,CLR,0.00,WeatherDisplay:10.37,2013-07-24 21:35:00,
2013-07-24 15:40:00,80.4,48.7,29.75,South,185,9.0,22.0,33,0.00,CLR,CLR,0.00,WeatherDisplay:10.37,2013-07-24 21:40:00,
2013-07-24 15:45:00,79.2,48.4,29.75,South,177,12.0,17.0,34,0.00,CLR,CLR,0.00,WeatherDisplay:10.37,2013-07-24 21:45:00,
2013-07-24 15:50:00,78.7,48.0,29.75,South,176,8.0,14.0,34,0.00,CLR,CLR,0.00,WeatherDisplay:10.37,2013-07-24 21:50:00,
2013-07-24 16:00:00,79.4,47.0,29.74,SSW,204,1.0,12.0,32,0.00,CLR,CLR,0.00,WeatherDisplay:10.37,2013-07-24 22:00:00,
2013-07-24 16:05:00,79.7,48.0,29.74,SSW,201,0.0,4.0,33,0.00,CLR,CLR,0.00,WeatherDisplay:10.37,2013-07-24 22:05:00,
2013-07-24 16:15:00,80.2,49.3,29.72,ESE,123,0.0,2.0,34,0.00,CLR,CLR,0.00,WeatherDisplay:10.37,2013-07-24 22:15:00,
2013-07-24 16:20:00,81.1,47.6,29.72,NE,52,0.0,4.0,31,0.00,CLR,CLR,0.00,WeatherDisplay:10.37,2013-07-24 22:20:00,
2013-07-24 16:25:00,82.8,50.7,29.72,NNW,344,1.0,5.0,33,0.00,CLR,CLR,0.00,WeatherDisplay:10.37,2013-07-24 22:25:00,
2013-07-24 16:35:00,83.6,49.7,29.71,NNE,26,0.0,5.0,31,0.00,CLR,CLR,0.00,WeatherDisplay:10.37,2013-07-24 22:35:00,
2013-07-24 16:40:00,82.6,50.6,29.71,East,99,0.0,3.0,33,0.00,CLR,CLR,0.00,WeatherDisplay:10.37,2013-07-24 22:40:00,
2013-07-24 16:45:00,82.3,49.5,29.71,ESE,104,0.0,4.0,32,0.00,CLR,CLR,0.00,WeatherDisplay:10.37,2013-07-24 22:45:00,
2013-07-24 16:50:00,82.6,50.6,29.71,ESE,104,1.0,3.0,33,0.00,CLR,CLR,0.00,WeatherDisplay:10.37,2013-07-24 22:50:00,
2013-07-24 16:55:00,83.1,51.0,29.71,ESE,104,0.0,3.0,33,0.00,CLR,CLR,0.00,WeatherDisplay:10.37,2013-07-24 22:55:00,
2013-07-24 17:00:00,83.5,51.4,29.70,East,101,1.0,4.0,33,0.00,CLR,CLR,0.00,WeatherDisplay:10.37,2013-07-24 23:00:00,
2013-07-24 17:05:00,83.8,51.7,29.71,East,99,1.0,3.0,33,0.00,CLR,CLR,0.00,WeatherDisplay:10.37,2013-07-24 23:05:00,
2013-07-24 17:10:00,83.9,48.2,29.70,ESE,102,1.0,4.0,29,0.00,CLR,CLR,0.00,WeatherDisplay:10.37,2013-07-24 23:10:00,
2013-07-24 17:15:00,83.7,49.0,29.70,ESE,105,1.0,4.0,30,0.00,CLR,CLR,0.00,WeatherDisplay:10.37,2013-07-24 23:15:00,
2013-07-24 17:20:00,83.8,49.9,29.70,ESE,114,1.0,3.0,31,0.00,CLR,CLR,0.00,WeatherDisplay:10.37,2013-07-24 23:20:00,
2013-07-24 17:25:00,84.1,51.0,29.70,ESE,116,0.0,2.0,32,0.00,CLR,CLR,0.00,WeatherDisplay:10.37,2013-07-24 23:25:00,
2013-07-24 17:30:00,84.4,48.7,29.70,ESE,117,0.0,1.0,29,0.00,CLR,CLR,0.00,WeatherDisplay:10.37,2013-07-24 23:30:00,
2013-07-24 17:40:00,85.4,50.4,29.70,South,182,1.0,3.0,30,0.00,CLR,CLR,0.00,WeatherDisplay:10.37,2013-07-24 23:40:00,
2013-07-24 17:50:00,85.3,49.4,29.70,SE,139,0.0,1.0,29,0.00,CLR,CLR,0.00,WeatherDisplay:10.37,2013-07-24 23:50:00,
2013-07-24 17:55:00,85.0,47.3,29.70,SE,132,0.0,4.0,27,0.00,CLR,CLR,0.00,WeatherDisplay:10.37,2013-07-24 23:55:00,
2013-07-24 18:00:00,85.2,49.4,29.70,SE,125,0.0,1.0,29,0.00,CLR,CLR,0.00,WeatherDisplay:10.37,2013-07-25 00:00:00,
2013-07-24 18:05:00,86.0,48.1,29.70,SE,128,1.0,4.0,27,0.00,CLR,CLR,0.00,WeatherDisplay:10.37,2013-07-25 00:05:00,
2013-07-24 18:10:00,86.5,49.5,29.70,WSW,255,2.0,6.0,28,0.00,CLR,CLR,0.00,WeatherDisplay:10.37,2013-07-25 00:10:00,
2013-07-24 18:15:00,85.5,46.7,29.70,WNW,287,5.0,9.0,26,0.00,CLR,CLR,0.00,WeatherDisplay:10.37,2013-07-25 00:15:00,
2013-07-24 18:20:00,83.9,47.3,29.70,WNW,283,0.0,10.0,28,0.00,CLR,CLR,0.00,WeatherDisplay:10.37,2013-07-25 00:20:00,
2013-07-24 18:30:00,82.2,47.7,29.70,West,274,1.0,6.0,30,0.00,CLR,CLR,0.00,WeatherDisplay:10.37,2013-07-25 00:30:00,
2013-07-24 18:35:00,81.8,47.3,29.70,West,267,0.0,4.0,30,0.00,CLR,CLR,0.00,WeatherDisplay:10.37,2013-07-25 00:35:00,
2013-07-24 18:45:00,81.8,46.4,29.70,WNW,290,1.0,3.0,29,0.00,CLR,CLR,0.00,WeatherDisplay:10.37,2013-07-25 00:45:00,
2013-07-24 18:50:00,81.8,47.3,29.70,WNW,288,0.0,3.0,30,0.00,CLR,CLR,0.00,WeatherDisplay:10.37,2013-07-25 00:50:00,
2013-07-24 18:55:00,81.8,47.3,29.70,West,265,2.0,9.0,30,0.00,CLR,CLR,0.00,WeatherDisplay:10.37,2013-07-25 00:55:00,
2013-07-24 19:00:00,81.5,47.1,29.70,West,270,0.0,7.0,30,0.00,CLR,CLR,0.00,WeatherDisplay:10.37,2013-07-25 01:00:00,
2013-07-24 19:05:00,81.2,46.8,29.70,West,280,1.0,4.0,30,0.00,CLR,CLR,0.00,WeatherDisplay:10.37,2013-07-25 01:05:00,
2013-07-24 19:10:00,81.0,46.6,29.70,West,276,1.0,7.0,30,0.00,CLR,CLR,0.00,WeatherDisplay:10.37,2013-07-25 01:10:00,
2013-07-24 19:15:00,80.9,46.6,29.70,West,273,0.0,2.0,30,0.00,CLR,CLR,0.00,WeatherDisplay:10.37,2013-07-25 01:15:00,
2013-07-24 19:20:00,81.2,46.8,29.70,West,273,0.0,2.0,30,0.00,CLR,CLR,0.00,WeatherDisplay:10.37,2013-07-25 01:20:00,
2013-07-24 19:30:00,81.8,47.3,29.69,West,273,0.0,5.0,30,0.00,CLR,CLR,0.00,WeatherDisplay:10.37,2013-07-25 01:30:00,
2013-07-24 19:35:00,81.3,47.8,29.69,West,263,0.0,3.0,31,0.00,CLR,CLR,0.00,WeatherDisplay:10.37,2013-07-25 01:35:00,
2013-07-24 19:40:00,80.4,47.9,29.69,WSW,257,0.0,3.0,32,0.00,CLR,CLR,0.00,WeatherDisplay:10.37,2013-07-25 01:40:00,
2013-07-24 19:50:00,79.3,46.9,29.69,West,264,0.0,0.0,32,0.00,CLR,CLR,0.00,WeatherDisplay:10.37,2013-07-25 01:50:00,
2013-07-24 19:55:00,79.2,47.6,29.69,West,271,0.0,1.0,33,0.00,CLR,CLR,0.00,WeatherDisplay:10.37,2013-07-25 01:55:00,
2013-07-24 20:00:00,78.5,48.6,29.69,West,281,0.0,0.0,35,0.00,CLR,CLR,0.00,WeatherDisplay:10.37,2013-07-25 02:00:00,
2013-07-24 20:05:00,76.7,49.9,29.69,West,281,0.0,0.0,39,0.00,CLR,CLR,0.00,WeatherDisplay:10.37,2013-07-25 02:05:00,
2013-07-24 20:10:00,74.5,49.3,29.69,West,281,0.0,1.0,41,0.00,CLR,CLR,0.00,WeatherDisplay:10.37,2013-07-25 02:10:00,
2013-07-24 20:15:00,73.5,48.4,29.69,West,281,0.0,0.0,41,0.00,CLR,CLR,0.00,WeatherDisplay:10.37,2013-07-25 02:15:00,
2013-07-24 20:20:00,73.8,49.9,29.69,West,281,0.0,1.0,43,0.00,CLR,CLR,0.00,WeatherDisplay:10.37,2013-07-25 02:20:00,
2013-07-24 20:25:00,72.7,49.5,29.69,West,280,0.0,1.0,44,0.00,CLR,CLR,0.00,WeatherDisplay:10.37,2013-07-25 02:25:00,
2013-07-24 20:30:00,70.7,49.4,29.69,West,279,0.0,0.0,47,0.00,CLR,CLR,0.00,WeatherDisplay:10.37,2013-07-25 02:30:00,
2013-07-24 20:40:00,69.6,48.5,29.70,WSW,238,0.0,2.0,47,0.00,CLR,CLR,0.00,WeatherDisplay:10.37,2013-07-25 02:40:00,
2013-07-24 20:45:00,69.6,47.9,29.70,WSW,237,0.0,2.0,46,0.00,CLR,CLR,0.00,WeatherDisplay:10.37,2013-07-25 02:45:00,
2013-07-24 20:50:00,70.7,46.4,29.70,WSW,237,0.0,1.0,42,0.00,CLR,CLR,0.00,WeatherDisplay:10.37,2013-07-25 02:50:00,
2013-07-24 20:55:00,72.1,47.1,29.71,WSW,237,0.0,1.0,41,0.00,CLR,CLR,0.00,WeatherDisplay:10.37,2013-07-25 02:55:00,
2013-07-24 21:00:00,72.1,49.0,29.71,WSW,237,0.0,0.0,44,0.00,CLR,CLR,0.00,WeatherDisplay:10.37,2013-07-25 03:00:00,
2013-07-24 21:05:00,70.4,48.0,29.71,WSW,237,0.0,2.0,45,0.00,CLR,CLR,0.00,WeatherDisplay:10.37,2013-07-25 03:05:00,
2013-07-24 21:15:00,67.6,48.3,29.72,SE,137,1.0,4.0,50,0.00,CLR,CLR,0.00,WeatherDisplay:10.37,2013-07-25 03:15:00,
2013-07-24 21:20:00,67.0,48.8,29.72,ESE,116,3.0,5.0,52,0.00,CLR,CLR,0.00,WeatherDisplay:10.37,2013-07-25 03:20:00,
2013-07-24 21:25:00,66.3,49.1,29.72,East,88,1.0,5.0,54,0.00,CLR,CLR,0.00,WeatherDisplay:10.37,2013-07-25 03:25:00,
2013-07-24 21:30:00,65.3,48.7,29.72,ESE,102,3.0,6.0,55,0.00,CLR,CLR,0.00,WeatherDisplay:10.37,2013-07-25 03:30:00,
2013-07-24 21:35:00,64.6,48.5,29.72,ESE,118,5.0,6.0,56,0.00,CLR,CLR,0.00,WeatherDisplay:10.37,2013-07-25 03:35:00,
2013-07-24 21:40:00,64.4,48.4,29.73,ESE,118,3.0,6.0,56,0.00,CLR,CLR,0.00,WeatherDisplay:10.37,2013-07-25 03:40:00,
2013-07-24 21:50:00,64.1,48.5,29.74,ESE,114,2.0,5.0,57,0.00,CLR,CLR,0.00,WeatherDisplay:10.37,2013-07-25 03:50:00,
2013-07-24 21:55:00,63.3,48.7,29.74,ESE,116,3.0,6.0,59,0.00,CLR,CLR,0.00,WeatherDisplay:10.37,2013-07-25 03:55:00,
2013-07-24 22:00:00,63.0,48.4,29.75,ESE,115,2.0,5.0,59,0.00,CLR,CLR,0.00,WeatherDisplay:10.37,2013-07-25 04:00:00,
2013-07-24 22:05:00,63.0,48.0,29.75,ESE,114,2.0,4.0,58,0.00,CLR,CLR,0.00,WeatherDisplay:10.37,2013-07-25 04:05:00,
2013-07-24 22:10:00,63.3,47.8,29.75,ESE,116,3.0,4.0,57,0.00,CLR,CLR,0.00,WeatherDisplay:10.37,2013-07-25 04:10:00,
2013-07-24 22:20:00,62.9,47.9,29.75,ESE,117,3.0,5.0,58,0.00,CLR,CLR,0.00,WeatherDisplay:10.37,2013-07-25 04:20:00,
2013-07-24 22:25:00,62.5,47.5,29.75,ESE,119,3.0,6.0,58,0.00,CLR,CLR,0.00,WeatherDisplay:10.37,2013-07-25 04:25:00,
2013-07-24 22:30:00,62.4,47.9,29.76,ESE,119,3.0,6.0,59,0.00,CLR,CLR,0.00,WeatherDisplay:10.37,2013-07-25 04:30:00,
2013-07-24 22:35:00,62.2,47.7,29.76,SE,124,5.0,7.0,59,0.00,CLR,CLR,0.00,WeatherDisplay:10.37,2013-07-25 04:35:00,
2013-07-24 22:40:00,62.1,47.6,29.76,SE,132,3.0,6.0,59,0.00,CLR,CLR,0.00,WeatherDisplay:10.37,2013-07-25 04:40:00,
2013-07-24 22:45:00,61.5,47.5,29.76,SE,136,5.0,6.0,60,0.00,CLR,CLR,0.00,WeatherDisplay:10.37,2013-07-25 04:45:00,
2013-07-24 22:50:00,60.9,47.8,29.76,SE,140,5.0,6.0,62,0.00,CLR,CLR,0.00,WeatherDisplay:10.37,2013-07-25 04:50:00,
2013-07-24 22:55:00,60.8,47.3,29.76,SE,139,3.0,5.0,61,0.00,CLR,CLR,0.00,WeatherDisplay:10.37,2013-07-25 04:55:00,
2013-07-24 23:00:00,61.1,47.5,29.76,SE,135,3.0,5.0,61,0.00,CLR,CLR,0.00,WeatherDisplay:10.37,2013-07-25 05:00:00,
2013-07-24 23:05:00,60.9,47.4,29.76,SE,136,5.0,7.0,61,0.00,CLR,CLR,0.00,WeatherDisplay:10.37,2013-07-25 05:05:00,
2013-07-24 23:10:00,61.3,47.3,29.76,SE,133,5.0,7.0,60,0.00,CLR,CLR,0.00,WeatherDisplay:10.37,2013-07-25 05:10:00,
2013-07-24 23:15:00,62.0,47.0,29.76,SE,131,5.0,7.0,58,0.00,CLR,CLR,0.00,WeatherDisplay:10.37,2013-07-25 05:15:00,
2013-07-24 23:25:00,61.4,46.9,29.76,SE,139,3.0,7.0,59,0.00,CLR,CLR,0.00,WeatherDisplay:10.37,2013-07-25 05:25:00,
2013-07-24 23:30:00,61.6,47.1,29.76,SE,138,3.0,7.0,59,0.00,CLR,CLR,0.00,WeatherDisplay:10.37,2013-07-25 05:30:00,
2013-07-24 23:40:00,61.8,47.3,29.76,SE,136,2.0,6.0,59,0.00,CLR,CLR,0.00,WeatherDisplay:10.37,2013-07-25 05:40:00,
2013-07-24 23:45:00,61.8,47.3,29.76,SE,129,2.0,4.0,59,0.00,CLR,CLR,0.00,WeatherDisplay:10.37,2013-07-25 05:45:00,
2013-07-24 23:55:00,61.4,47.8,29.75,ESE,111,3.0,7.0,61,0.00,CLR,CLR,0.00,WeatherDisplay:10.37,2013-07-25 05:55:00,